Terminal Aerodrome Forecast
Issued by NWS Twin Cities, MN

Home | Current Version | Previous Version | Graphics & Text | Print | Product List | Glossary On
Versions: 1 2 3 4 5 6 7 8 9 10 11 12 13 14 15
000
FTUS43 KMPX 211018 AAA
TAFSTC
TAF AMD
KSTC 211018Z 2110/2206 17015G20KT P6SM VCSH OVC045
     FM211400 17014G21KT P6SM OVC025
     FM211800 18012KT 6SM -RA OVC015
     FM212100 25010KT 6SM -SHRA OVC020=

USA.gov is the U.S. government's official web portal to all federal, state and local government web resources and services.